Time;durP1;ratioP1;P1;durP2;ratioP2;P2;SDS_P1;SDS_P2;PMS_P1;PMS_P2;Temp;Humidity;BMP_temperature;BMP_pressure;BME280_temperature;BME280_humidity;BME280_pressure;Samples;Min_cycle;Max_cycle;Signal;HPM_P1;HPM_P2
2023/10/05 04:30:42;;;;;;;0.10;0.10;;;12.10;79.50;;;;;;5705077;23;20045;-76
2023/10/05 04:33:08;;;;;;;0.00;0.00;;;12.10;79.40;;;;;;4890658;29;20090;-77
2023/10/05 04:35:42;;;;;;;0.10;0.10;;;12.10;79.10;;;;;;4898180;29;20081;-77
2023/10/05 04:38:10;;;;;;;0.10;0.10;;;12.10;79.20;;;;;;4864906;29;20797;-77
2023/10/05 04:40:38;;;;;;;0.10;0.10;;;12.00;79.30;;;;;;4888176;29;20013;-77
2023/10/05 04:43:05;;;;;;;0.10;0.10;;;12.00;79.10;;;;;;4895018;29;20029;-77
2023/10/05 04:45:31;;;;;;;0.00;0.00;;;12.00;78.90;;;;;;4864933;29;20057;-77
2023/10/05 04:48:00;;;;;;;0.10;0.10;;;12.00;78.80;;;;;;4881255;29;20033;-77
2023/10/05 04:50:27;;;;;;;0.00;0.00;;;12.00;79.20;;;;;;4881363;29;20029;-77
2023/10/05 04:52:54;;;;;;;0.08;0.08;;;11.90;79.30;;;;;;4897240;29;20084;-77
2023/10/05 04:55:30;;;;;;;0.10;0.10;;;11.80;79.20;;;;;;4897968;29;20028;-75
2023/10/05 04:58:14;;;;;;;0.10;0.10;;;11.80;79.30;;;;;;4864815;29;20101;-76
2023/10/05 05:08:26;;;;;;;0.10;0.10;;;11.80;79.20;;;;;;4894595;29;20037;-76
2023/10/05 05:10:52;;;;;;;0.10;0.10;;;11.80;79.20;;;;;;4899774;29;20040;-78
2023/10/05 05:13:20;;;;;;;0.10;0.10;;;11.80;79.10;;;;;;4900050;29;20036;-79
2023/10/05 05:15:46;;;;;;;0.10;0.10;;;11.80;79.00;;;;;;4892498;29;20072;-77
2023/10/05 05:18:14;;;;;;;0.08;0.08;;;11.80;78.80;;;;;;4879424;29;20033;-83
2023/10/05 05:20:41;;;;;;;0.10;0.10;;;11.80;78.70;;;;;;4890382;29;20014;-79
2023/10/05 05:23:07;;;;;;;0.00;0.00;;;11.80;78.70;;;;;;4898745;29;20519;-76
2023/10/05 05:25:33;;;;;;;0.10;0.10;;;11.80;78.50;;;;;;4898667;29;20037;-77
2023/10/05 05:28:01;;;;;;;0.00;0.00;;;11.70;78.60;;;;;;4885240;29;20032;-78
2023/10/05 05:30:27;;;;;;;0.10;0.10;;;11.70;78.70;;;;;;4886620;29;20396;-77
2023/10/05 05:32:59;;;;;;;0.10;0.10;;;11.70;78.70;;;;;;4869313;29;20037;-77
2023/10/05 05:35:27;;;;;;;0.10;0.10;;;11.60;79.30;;;;;;4903283;29;20040;-77
2023/10/05 05:37:56;;;;;;;0.00;0.00;;;11.60;79.10;;;;;;4889604;29;20025;-77
2023/10/05 05:40:22;;;;;;;0.10;0.10;;;11.60;79.10;;;;;;4902859;29;20025;-77
2023/10/05 05:42:47;;;;;;;0.05;0.05;;;11.50;79.00;;;;;;4902795;29;20056;-77
2023/10/05 05:45:16;;;;;;;0.10;0.10;;;11.50;79.40;;;;;;4903435;29;20104;-78
2023/10/05 05:47:45;;;;;;;0.00;0.00;;;11.50;79.20;;;;;;4882885;29;20492;-80
2023/10/05 05:50:18;;;;;;;0.05;0.05;;;11.50;79.10;;;;;;4884006;29;20472;-77
2023/10/05 05:52:47;;;;;;;0.10;0.10;;;11.60;79.10;;;;;;4901871;29;20037;-77
2023/10/05 05:55:21;;;;;;;0.10;0.10;;;11.50;78.90;;;;;;4894854;29;20124;-77
2023/10/05 05:57:48;;;;;;;0.10;0.10;;;11.50;78.80;;;;;;4870872;29;20021;-77
2023/10/05 06:00:18;;;;;;;0.10;0.10;;;11.50;78.90;;;;;;4901962;29;20017;-77
2023/10/05 06:02:44;;;;;;;0.00;0.00;;;11.50;79.00;;;;;;4901997;29;20555;-77
2023/10/05 06:05:11;;;;;;;0.10;0.10;;;11.40;78.90;;;;;;4881969;29;20037;-77
2023/10/05 06:07:38;;;;;;;0.10;0.10;;;11.50;78.90;;;;;;4884467;29;20040;-77
2023/10/05 06:10:15;;;;;;;0.10;0.10;;;11.50;79.00;;;;;;4884402;29;20089;-77
2023/10/05 06:12:48;;;;;;;0.10;0.10;;;11.40;79.10;;;;;;4884291;29;20061;-77
2023/10/05 06:15:13;;;;;;;;;;;11.40;79.40;;;;;;4868486;29;20454;-77
2023/10/05 06:17:40;;;;;;;0.10;0.10;;;11.40;79.50;;;;;;4884185;29;19908;-77
2023/10/05 06:20:15;;;;;;;0.10;0.10;;;11.50;79.90;;;;;;4883106;29;20033;-77
2023/10/05 06:22:43;;;;;;;0.10;0.10;;;11.50;79.70;;;;;;4881651;29;20113;-77
2023/10/05 06:25:09;;;;;;;0.10;0.10;;;11.60;79.30;;;;;;4886276;29;20032;-77
2023/10/05 06:27:37;;;;;;;0.10;0.10;;;11.50;79.80;;;;;;4900274;29;20050;-77
2023/10/05 06:30:09;;;;;;;0.10;0.10;;;11.50;80.40;;;;;;4883902;29;20035;-78
2023/10/05 06:32:35;;;;;;;0.10;0.10;;;11.50;80.70;;;;;;4867130;29;20051;-78
2023/10/05 06:35:00;;;;;;;0.10;0.10;;;11.70;80.50;;;;;;4899750;29;20607;-78
2023/10/05 06:37:26;;;;;;;0.10;0.10;;;11.70;80.10;;;;;;4884068;29;20081;-78
2023/10/05 06:39:55;;;;;;;0.10;0.10;;;11.70;80.40;;;;;;4885164;29;20392;-78
2023/10/05 06:42:21;;;;;;;0.10;0.10;;;11.80;80.60;;;;;;4881977;29;20044;-78
2023/10/05 06:44:48;;;;;;;0.10;0.10;;;11.80;80.70;;;;;;4883856;29;20025;-78
2023/10/05 06:47:35;;;;;;;0.10;0.10;;;11.90;80.80;;;;;;4883736;29;20081;-78
2023/10/05 06:50:00;;;;;;;0.10;0.10;;;12.00;80.60;;;;;;4901971;29;20488;-78
2023/10/05 06:52:26;;;;;;;0.10;0.10;;;12.10;80.60;;;;;;4902399;29;20115;-78
2023/10/05 06:54:51;;;;;;;0.10;0.10;;;12.10;80.40;;;;;;4889443;29;20096;-78
2023/10/05 06:57:17;;;;;;;0.10;0.10;;;12.20;80.40;;;;;;4883680;29;20037;-78
2023/10/05 06:59:43;;;;;;;0.10;0.10;;;12.20;80.20;;;;;;4883315;29;20408;-78
2023/10/05 07:02:09;;;;;;;0.10;0.10;;;12.30;80.30;;;;;;4888365;29;20027;-78
2023/10/05 07:04:35;;;;;;;0.10;0.10;;;12.30;80.30;;;;;;4902034;29;20103;-78
2023/10/05 07:07:03;;;;;;;0.10;0.10;;;12.30;80.10;;;;;;4885233;29;20780;-78
2023/10/05 07:09:30;;;;;;;0.00;0.00;;;12.40;79.70;;;;;;4882800;29;20057;-78
2023/10/05 07:11:57;;;;;;;0.10;0.10;;;12.50;79.70;;;;;;4880781;29;20048;-78
2023/10/05 07:14:24;;;;;;;0.10;0.10;;;12.60;79.70;;;;;;4883355;29;20029;-78
2023/10/05 07:16:50;;;;;;;0.00;0.00;;;12.60;79.80;;;;;;4866636;29;20035;-78
2023/10/05 07:19:17;;;;;;;0.10;0.10;;;12.60;79.70;;;;;;4883031;29;20061;-76
2023/10/05 07:21:43;;;;;;;0.10;0.10;;;12.50;80.40;;;;;;4889783;29;20029;-76
2023/10/05 07:24:08;;;;;;;0.00;0.00;;;12.50;80.60;;;;;;4901889;29;20032;-77
2023/10/05 07:26:34;;;;;;;0.10;0.10;;;12.70;80.60;;;;;;4901631;29;20095;-77
2023/10/05 07:29:01;;;;;;;0.00;0.00;;;12.60;80.50;;;;;;4884067;29;20029;-77
2023/10/05 07:31:26;;;;;;;0.10;0.10;;;12.70;80.70;;;;;;4901549;29;20059;-77
2023/10/05 07:33:52;;;;;;;0.10;0.10;;;12.60;80.40;;;;;;4884538;29;20032;-77
2023/10/05 07:36:19;;;;;;;0.10;0.10;;;12.50;80.50;;;;;;4870444;29;20116;-77
2023/10/05 07:38:44;;;;;;;0.10;0.10;;;12.60;80.50;;;;;;4882754;29;20032;-77
2023/10/05 07:41:11;;;;;;;0.10;0.10;;;12.60;80.40;;;;;;4895755;29;20025;-77
2023/10/05 07:43:37;;;;;;;0.10;0.10;;;12.60;80.10;;;;;;4901408;29;20034;-77
2023/10/05 07:46:06;;;;;;;0.10;0.10;;;12.70;80.20;;;;;;4891185;29;20097;-77
2023/10/05 07:48:32;;;;;;;0.10;0.10;;;12.80;79.70;;;;;;4880949;29;20081;-77
2023/10/05 07:50:58;;;;;;;0.10;0.10;;;12.80;79.40;;;;;;4882637;29;20058;-77
2023/10/05 07:53:25;;;;;;;0.10;0.10;;;12.90;79.30;;;;;;4881313;29;20037;-77
2023/10/05 07:55:52;;;;;;;0.10;0.10;;;13.30;78.90;;;;;;4870254;29;20028;-77
2023/10/05 07:58:19;;;;;;;0.15;0.10;;;13.20;78.20;;;;;;4882467;29;20032;-77
2023/10/05 08:00:48;;;;;;;0.15;0.15;;;13.30;78.10;;;;;;4884933;29;20029;-77
2023/10/05 08:03:14;;;;;;;0.10;0.10;;;13.30;78.10;;;;;;4869959;29;20039;-77
2023/10/05 08:05:40;;;;;;;0.05;0.05;;;13.40;77.60;;;;;;4892216;29;20037;-77
2023/10/05 08:08:06;;;;;;;0.10;0.10;;;13.50;77.30;;;;;;4865585;29;20105;-77
2023/10/05 08:10:31;;;;;;;0.10;0.10;;;13.60;76.90;;;;;;4882401;29;20493;-77
2023/10/05 08:13:02;;;;;;;0.10;0.10;;;13.70;76.70;;;;;;4890981;29;20081;-77
2023/10/05 08:15:29;;;;;;;0.10;0.10;;;13.70;76.50;;;;;;4882094;29;20040;-77
2023/10/05 08:17:56;;;;;;;0.10;0.10;;;14.00;76.20;;;;;;4882224;29;20029;-77
2023/10/05 08:20:24;;;;;;;0.10;0.10;;;14.00;76.00;;;;;;4881938;29;20028;-77
2023/10/05 08:22:49;;;;;;;0.00;0.00;;;14.20;75.60;;;;;;4897481;29;20120;-77
2023/10/05 08:25:16;;;;;;;0.10;0.10;;;14.20;75.40;;;;;;4900691;29;20060;-77
2023/10/05 08:27:42;;;;;;;0.00;0.00;;;14.30;75.20;;;;;;4893642;29;20077;-77
2023/10/05 08:30:10;;;;;;;0.10;0.10;;;14.40;75.30;;;;;;4865238;29;20563;-77
2023/10/05 08:32:37;;;;;;;0.10;0.10;;;14.50;75.00;;;;;;4881928;29;20048;-77
2023/10/05 08:35:12;;;;;;;0.10;0.10;;;14.70;74.10;;;;;;4875147;29;20041;-77
2023/10/05 08:37:42;;;;;;;0.10;0.10;;;14.80;74.60;;;;;;4882051;29;20047;-77
2023/10/05 08:40:30;;;;;;;0.10;0.10;;;15.00;74.00;;;;;;4886807;29;20036;-77
2023/10/05 08:43:08;;;;;;;0.10;0.10;;;15.10;73.40;;;;;;4897495;29;20021;-77
2023/10/05 08:45:46;;;;;;;0.00;0.00;;;14.90;73.10;;;;;;4881871;29;20065;-76
2023/10/05 08:48:19;;;;;;;0.10;0.10;;;14.90;73.50;;;;;;4865280;29;20033;-76
2023/10/05 08:50:48;;;;;;;0.10;0.10;;;14.90;73.90;;;;;;4881985;29;20037;-77
2023/10/05 08:53:19;;;;;;;0.10;0.10;;;15.00;73.80;;;;;;4865166;29;20052;-77
2023/10/05 08:55:49;;;;;;;0.10;0.10;;;15.20;73.50;;;;;;4882083;29;20492;-77
2023/10/05 08:58:18;;;;;;;0.10;0.10;;;15.30;72.80;;;;;;4882820;29;20080;-77
2023/10/05 09:00:45;;;;;;;0.10;0.10;;;15.40;72.90;;;;;;4885442;29;20108;-77
2023/10/05 09:03:29;;;;;;;0.00;0.00;;;15.50;72.60;;;;;;4872703;29;20032;-77
2023/10/05 09:06:15;;;;;;;0.08;0.08;;;15.60;72.30;;;;;;4904375;29;20035;-77
2023/10/05 09:08:51;;;;;;;0.00;0.00;;;15.70;72.80;;;;;;4887627;29;20060;-77
2023/10/05 09:11:20;;;;;;;0.10;0.10;;;15.70;73.60;;;;;;4890701;29;20029;-77
2023/10/05 09:13:46;;;;;;;0.08;0.08;;;15.80;73.00;;;;;;4868844;29;20048;-77
2023/10/05 09:16:30;;;;;;;0.00;0.00;;;15.90;72.30;;;;;;4885030;29;20076;-77
2023/10/05 09:18:57;;;;;;;0.10;0.10;;;15.90;72.20;;;;;;4885420;29;20392;-76
2023/10/05 09:21:40;;;;;;;0.10;0.10;;;15.90;72.30;;;;;;4889325;29;20079;-77
2023/10/05 09:24:19;;;;;;;0.00;0.00;;;15.90;72.20;;;;;;4904111;29;20471;-77
2023/10/05 09:26:57;;;;;;;0.00;0.00;;;15.90;72.20;;;;;;4891833;29;20496;-77
2023/10/05 09:29:28;;;;;;;0.05;0.05;;;16.00;73.20;;;;;;4884875;29;20055;-77
2023/10/05 09:31:58;;;;;;;0.00;0.00;;;16.00;72.40;;;;;;4884761;29;20131;-77
2023/10/05 09:34:41;;;;;;;0.00;0.00;;;16.00;72.20;;;;;;4898886;29;20522;-77
2023/10/05 09:37:08;;;;;;;0.00;0.00;;;16.10;73.80;;;;;;4886916;29;20181;-77
2023/10/05 09:39:44;;;;;;;0.00;0.00;;;16.20;72.70;;;;;;4901620;29;20041;-77
2023/10/05 09:42:17;;;;;;;0.10;0.10;;;16.30;73.30;;;;;;4903634;29;20029;-77
2023/10/05 09:45:33;;;;;;;0.10;0.10;;;16.30;71.90;;;;;;4882681;29;20089;-77
2023/10/05 09:47:35;;;;;;;0.10;0.10;;;16.30;70.60;;;;;;4868290;29;20040;-78
2023/10/05 09:50:10;;;;;;;0.10;0.10;;;16.40;71.70;;;;;;4884805;29;20033;-77
2023/10/05 09:52:43;;;;;;;0.10;0.10;;;16.60;71.80;;;;;;4884916;29;20035;-77
2023/10/05 09:55:12;;;;;;;;;;;16.60;72.00;;;;;;4885330;29;20044;-77
2023/10/05 09:57:46;;;;;;;0.00;0.00;;;16.70;72.00;;;;;;4868171;29;20369;-78
2023/10/05 10:02:59;;;;;;;0.10;0.10;;;16.90;71.10;;;;;;4885785;29;20111;-77
2023/10/05 10:05:30;;;;;;;0.00;0.00;;;17.00;69.50;;;;;;4884568;29;20035;-77
2023/10/05 10:08:14;;;;;;;0.10;0.10;;;17.20;69.80;;;;;;4882864;29;20032;-77
2023/10/05 10:10:51;;;;;;;0.00;0.00;;;17.30;69.40;;;;;;4867272;29;20390;-77
2023/10/05 10:13:21;;;;;;;0.10;0.10;;;17.40;68.30;;;;;;4884565;29;20648;-77
2023/10/05 10:15:53;;;;;;;0.10;0.10;;;17.40;68.20;;;;;;4886157;29;20029;-77
2023/10/05 10:18:30;;;;;;;0.00;0.00;;;17.40;66.50;;;;;;4892106;29;20024;-77
2023/10/05 10:20:57;;;;;;;0.00;0.00;;;17.50;67.10;;;;;;4903186;29;20089;-76
2023/10/05 10:23:27;;;;;;;0.10;0.10;;;17.40;68.10;;;;;;4903081;29;20076;-77
2023/10/05 10:26:16;;;;;;;0.00;0.00;;;17.40;67.60;;;;;;4894683;29;20036;-76
2023/10/05 10:31:13;;;;;;;0.00;0.00;;;17.70;68.00;;;;;;4883731;29;20068;-76
2023/10/05 10:33:40;;;;;;;0.00;0.00;;;17.80;67.60;;;;;;4875126;29;20055;-76
2023/10/05 10:36:18;;;;;;;0.10;0.10;;;17.90;67.00;;;;;;4887701;29;20638;-76
2023/10/05 10:38:50;;;;;;;0.10;0.10;;;18.10;66.90;;;;;;4883941;29;20029;-76
2023/10/05 10:41:16;;;;;;;0.10;0.10;;;18.30;65.80;;;;;;4880822;29;20048;-82
2023/10/05 10:43:49;;;;;;;0.00;0.00;;;18.30;65.00;;;;;;4892567;29;20053;-78
2023/10/05 10:46:28;;;;;;;0.10;0.10;;;18.30;64.20;;;;;;4866987;29;20037;-78
2023/10/05 10:48:58;;;;;;;0.00;0.00;;;18.30;64.30;;;;;;4883780;29;20540;-78
2023/10/05 10:51:32;;;;;;;0.10;0.10;;;18.30;63.40;;;;;;4883589;29;20040;-80
2023/10/05 10:54:02;;;;;;;0.10;0.10;;;18.30;63.30;;;;;;4867097;29;20057;-80
2023/10/05 10:56:34;;;;;;;0.10;0.10;;;18.30;64.80;;;;;;4883457;29;20064;-79
2023/10/05 10:59:10;;;;;;;0.10;0.10;;;18.30;62.30;;;;;;4866976;29;20040;-75
2023/10/05 11:01:52;;;;;;;0.10;0.10;;;18.30;62.60;;;;;;4866802;29;20052;-81
2023/10/05 11:04:25;;;;;;;0.00;0.00;;;18.40;62.20;;;;;;4896211;29;20028;-76
2023/10/05 11:07:09;;;;;;;0.00;0.00;;;18.50;61.80;;;;;;4902014;29;20436;-83
2023/10/05 11:09:54;;;;;;;0.10;0.10;;;18.60;60.50;;;;;;4887827;29;20148;-77
2023/10/05 11:12:21;;;;;;;0.00;0.00;;;18.70;61.20;;;;;;4866614;29;20376;-75
2023/10/05 11:14:47;;;;;;;0.10;0.10;;;18.80;61.40;;;;;;4880710;29;20037;-77
2023/10/05 11:17:23;;;;;;;0.00;0.00;;;18.80;61.60;;;;;;4866639;29;20029;-75
2023/10/05 11:19:49;;;;;;;0.00;0.00;;;18.80;61.00;;;;;;4883255;29;20532;-74
2023/10/05 11:22:23;;;;;;;0.10;0.10;;;18.80;61.70;;;;;;4884943;29;20025;-75
2023/10/05 11:25:14;;;;;;;0.10;0.10;;;18.90;60.50;;;;;;4882737;29;20029;-74
2023/10/05 11:27:48;;;;;;;0.10;0.10;;;18.90;59.70;;;;;;4866508;29;20039;-75
2023/10/05 11:30:21;;;;;;;0.05;0.05;;;19.00;58.80;;;;;;4885249;29;20036;-75
2023/10/05 11:32:56;;;;;;;0.03;0.03;;;19.10;59.80;;;;;;4883518;29;20028;-74
2023/10/05 11:35:29;;;;;;;0.00;0.00;;;19.10;59.20;;;;;;4884812;29;20029;-75
2023/10/05 11:37:59;;;;;;;0.03;0.03;;;19.20;59.80;;;;;;4898445;29;20055;-74
2023/10/05 11:40:34;;;;;;;0.00;0.00;;;19.30;57.80;;;;;;4889828;29;20396;-75
2023/10/05 11:43:04;;;;;;;0.00;0.00;;;19.30;58.10;;;;;;4884644;29;20028;-76
2023/10/05 11:45:34;;;;;;;0.00;0.00;;;19.30;59.20;;;;;;4901446;29;20024;-86
2023/10/05 11:51:16;;;;;;;0.03;0.03;;;19.50;59.50;;;;;;4862650;29;20036;-85
2023/10/05 11:53:43;;;;;;;0.03;0.03;;;19.50;58.40;;;;;;4884134;29;20423;-85
2023/10/05 11:56:09;;;;;;;0.00;0.00;;;19.50;57.90;;;;;;4901485;29;20028;-89
2023/10/05 11:58:40;;;;;;;0.00;0.00;;;19.50;57.90;;;;;;4884583;29;20043;-87
2023/10/05 12:01:07;;;;;;;0.00;0.00;;;19.40;58.50;;;;;;4884520;29;20024;-84
2023/10/05 12:03:33;;;;;;;0.00;0.00;;;19.50;57.60;;;;;;4896057;29;20558;-83
2023/10/05 12:06:03;;;;;;;0.10;0.10;;;19.50;57.80;;;;;;4883670;29;20037;-81
2023/10/05 12:08:30;;;;;;;0.00;0.00;;;19.60;58.30;;;;;;4895678;29;20032;-84
2023/10/05 12:10:59;;;;;;;0.10;0.10;;;19.70;56.90;;;;;;4883718;29;20025;-86
2023/10/05 12:13:28;;;;;;;0.00;0.00;;;19.70;57.20;;;;;;4865957;29;20041;-90
2023/10/05 12:15:54;;;;;;;0.10;0.10;;;19.80;57.50;;;;;;4881725;29;20037;-88
2023/10/05 12:18:22;;;;;;;0.03;0.03;;;19.90;57.40;;;;;;4881401;29;20064;-85
2023/10/05 12:20:49;;;;;;;0.10;0.10;;;20.00;55.90;;;;;;4865654;29;20105;-85
2023/10/05 12:23:15;;;;;;;0.00;0.00;;;20.10;55.90;;;;;;4888797;29;20029;-84
2023/10/05 12:25:47;;;;;;;0.10;0.10;;;20.20;56.50;;;;;;4866080;29;20168;-84
2023/10/05 12:28:14;;;;;;;0.10;0.10;;;20.30;56.40;;;;;;4881949;29;20475;-83
2023/10/05 12:30:44;;;;;;;0.00;0.00;;;20.30;55.80;;;;;;4866574;29;20457;-86
2023/10/05 12:33:13;;;;;;;0.00;0.00;;;20.30;56.30;;;;;;4884382;29;20056;-86
2023/10/05 12:35:38;;;;;;;0.10;0.10;;;20.30;55.20;;;;;;4893562;29;20048;-84
2023/10/05 12:38:06;;;;;;;0.10;0.10;;;20.10;55.80;;;;;;4896010;29;20021;-84
2023/10/05 12:40:41;;;;;;;0.00;0.00;;;20.10;55.50;;;;;;4890006;29;20040;-85
2023/10/05 12:43:09;;;;;;;0.10;0.10;;;20.10;56.10;;;;;;4900369;29;20021;-85
2023/10/05 12:45:35;;;;;;;0.10;0.10;;;20.30;54.90;;;;;;4899673;29;20033;-84
2023/10/05 12:48:00;;;;;;;0.10;0.10;;;20.30;54.60;;;;;;4886437;29;20033;-85
2023/10/05 12:50:29;;;;;;;0.10;0.10;;;20.30;54.00;;;;;;4881925;29;20097;-86
2023/10/05 12:52:56;;;;;;;0.03;0.03;;;20.20;55.50;;;;;;4880664;29;20433;-87
2023/10/05 12:55:23;;;;;;;0.00;0.00;;;20.20;53.60;;;;;;4880358;29;20036;-85
2023/10/05 12:57:53;;;;;;;0.00;0.00;;;20.20;52.70;;;;;;4881835;29;20029;-86
2023/10/05 13:00:27;;;;;;;0.10;0.10;;;20.00;52.60;;;;;;4880754;29;20400;-86
2023/10/05 13:02:53;;;;;;;0.10;0.10;;;20.00;53.10;;;;;;4882159;29;20025;-86
2023/10/05 13:05:31;;;;;;;0.10;0.10;;;20.00;52.90;;;;;;4896414;29;20029;-86
2023/10/05 13:08:01;;;;;;;0.00;0.00;;;20.10;54.80;;;;;;4880543;29;20508;-87
2023/10/05 13:10:32;;;;;;;0.10;0.10;;;20.20;55.90;;;;;;4881961;29;20036;-86
2023/10/05 13:13:09;;;;;;;0.00;0.00;;;20.10;53.30;;;;;;4880751;29;20088;-86
2023/10/05 13:15:38;;;;;;;0.10;0.10;;;20.20;53.00;;;;;;4889256;29;20400;-87
2023/10/05 13:18:19;;;;;;;0.00;0.00;;;20.30;53.50;;;;;;4900639;29;20392;-80
2023/10/05 13:20:53;;;;;;;0.00;0.00;;;20.20;52.90;;;;;;4896570;29;20033;-78
2023/10/05 13:23:21;;;;;;;0.00;0.00;;;20.30;52.60;;;;;;4887928;29;20081;-78
2023/10/05 13:25:50;;;;;;;0.00;0.00;;;20.30;53.40;;;;;;4880809;29;20135;-80
2023/10/05 13:28:26;;;;;;;0.10;0.10;;;20.30;53.20;;;;;;4881498;29;20029;-80
2023/10/05 13:30:54;;;;;;;0.00;0.00;;;20.30;53.90;;;;;;4881415;29;20049;-81
2023/10/05 13:33:22;;;;;;;0.10;0.10;;;20.40;54.30;;;;;;4886730;29;20380;-81
2023/10/05 13:35:50;;;;;;;0.10;0.10;;;20.50;53.70;;;;;;4900265;29;20496;-80
2023/10/05 13:38:17;;;;;;;0.10;0.10;;;20.60;52.90;;;;;;4890199;29;20017;-80
2023/10/05 13:43:29;;;;;;;0.05;0.05;;;20.70;51.70;;;;;;4892344;29;20424;-80
2023/10/05 13:45:56;;;;;;;0.08;0.08;;;20.80;51.60;;;;;;4883277;29;20507;-80
2023/10/05 13:48:22;;;;;;;0.10;0.10;;;20.80;51.60;;;;;;4884805;29;20070;-80
2023/10/05 13:50:51;;;;;;;0.00;0.00;;;20.80;51.80;;;;;;4885035;29;20048;-80
2023/10/05 13:53:17;;;;;;;0.08;0.08;;;20.90;52.50;;;;;;4884713;29;20033;-80
2023/10/05 13:55:43;;;;;;;0.00;0.00;;;20.90;52.90;;;;;;4868071;29;20057;-81
2023/10/05 13:58:17;;;;;;;0.10;0.10;;;20.80;51.00;;;;;;4886900;29;20025;-80
2023/10/05 14:00:47;;;;;;;0.10;0.10;;;20.80;51.60;;;;;;4884632;29;20493;-80
2023/10/05 14:03:14;;;;;;;0.00;0.00;;;20.70;50.70;;;;;;4888901;29;20029;-81
2023/10/05 14:05:40;;;;;;;0.00;0.00;;;20.70;50.90;;;;;;4883704;29;20156;-81
2023/10/05 14:08:12;;;;;;;0.10;0.05;;;20.70;50.80;;;;;;4903327;29;20367;-80
2023/10/05 14:10:38;;;;;;;0.00;0.00;;;20.60;52.20;;;;;;4896242;29;20041;-80
2023/10/05 14:13:06;;;;;;;0.03;0.03;;;20.50;50.30;;;;;;4868145;29;20033;-81
2023/10/05 14:15:32;;;;;;;0.00;0.00;;;20.50;51.10;;;;;;4897998;29;20060;-81
2023/10/05 14:17:58;;;;;;;0.10;0.10;;;20.50;51.80;;;;;;4903189;29;20017;-81
2023/10/05 14:20:25;;;;;;;0.10;0.10;;;20.60;51.80;;;;;;4885663;29;20044;-81
2023/10/05 14:22:50;;;;;;;0.10;0.10;;;20.60;49.80;;;;;;4883376;29;20040;-81
2023/10/05 14:25:22;;;;;;;0.00;0.00;;;20.70;50.40;;;;;;4898378;29;20033;-81
2023/10/05 14:27:49;;;;;;;0.05;0.05;;;20.70;52.00;;;;;;4884290;29;20041;-82
2023/10/05 14:30:20;;;;;;;0.03;0.03;;;20.80;51.40;;;;;;4884240;29;20048;-82
2023/10/05 14:32:49;;;;;;;0.10;0.10;;;20.80;51.10;;;;;;4885301;29;20074;-82
2023/10/05 14:35:18;;;;;;;0.00;0.00;;;20.80;51.60;;;;;;4875410;29;20515;-82
2023/10/05 14:37:45;;;;;;;0.10;0.10;;;20.90;51.70;;;;;;4884127;29;20017;-82
2023/10/05 14:40:24;;;;;;;0.00;0.00;;;20.80;51.60;;;;;;4872481;29;20039;-82
2023/10/05 14:42:53;;;;;;;0.00;0.00;;;20.80;51.80;;;;;;4882072;29;20067;-82
2023/10/05 14:45:26;;;;;;;0.00;0.00;;;20.90;52.30;;;;;;4867226;29;20029;-82
2023/10/05 14:47:53;;;;;;;0.10;0.10;;;20.80;51.00;;;;;;4883784;29;20025;-82
2023/10/05 14:50:19;;;;;;;0.00;0.00;;;20.80;51.50;;;;;;4883847;29;20025;-82
2023/10/05 14:52:50;;;;;;;0.03;0.03;;;20.80;50.30;;;;;;4866848;29;20198;-82
2023/10/05 14:55:17;;;;;;;0.00;0.00;;;20.80;51.00;;;;;;4882710;29;20033;-82
2023/10/05 14:57:44;;;;;;;0.00;0.00;;;20.80;50.60;;;;;;4883659;29;20599;-82
2023/10/05 15:00:16;;;;;;;0.05;0.05;;;20.80;48.70;;;;;;4866832;29;20029;-82
2023/10/05 15:02:43;;;;;;;0.00;0.00;;;20.80;48.80;;;;;;4884030;29;20029;-82
2023/10/05 15:05:11;;;;;;;0.00;0.00;;;20.70;48.30;;;;;;4902371;29;20065;-82
2023/10/05 15:07:38;;;;;;;0.00;0.00;;;20.60;49.40;;;;;;4873506;29;20025;-82
2023/10/05 15:10:10;;;;;;;0.00;0.00;;;20.70;50.60;;;;;;4883340;29;20029;-82
2023/10/05 15:12:39;;;;;;;0.00;0.00;;;20.70;50.90;;;;;;4883486;29;20027;-82
2023/10/05 15:15:09;;;;;;;0.00;0.00;;;20.60;50.70;;;;;;4883355;29;20117;-82
2023/10/05 15:17:35;;;;;;;0.00;0.00;;;20.70;50.80;;;;;;4866879;29;20060;-82
2023/10/05 15:20:01;;;;;;;0.00;0.00;;;20.70;52.10;;;;;;4866927;29;20032;-82
2023/10/05 15:22:27;;;;;;;0.00;0.00;;;20.60;51.10;;;;;;4895691;29;20061;-82
2023/10/05 15:24:54;;;;;;;0.00;0.00;;;20.60;51.00;;;;;;4900915;29;20088;-82
2023/10/05 15:27:21;;;;;;;0.05;0.05;;;20.50;50.70;;;;;;4898576;29;20033;-82
2023/10/05 15:29:46;;;;;;;0.10;0.10;;;20.60;51.30;;;;;;4902031;29;20044;-82
2023/10/05 15:32:12;;;;;;;0.00;0.00;;;20.50;50.70;;;;;;4904314;29;20056;-82
2023/10/05 15:34:39;;;;;;;0.00;0.00;;;20.60;50.90;;;;;;4901865;29;20044;-82
2023/10/05 15:37:05;;;;;;;0.10;0.00;;;20.50;51.70;;;;;;4875515;29;20029;-82
2023/10/05 15:39:33;;;;;;;0.00;0.00;;;20.50;51.10;;;;;;4883185;29;20096;-82
2023/10/05 15:41:58;;;;;;;0.08;0.08;;;20.50;51.80;;;;;;4884846;29;20029;-82
2023/10/05 15:44:24;;;;;;;0.00;0.00;;;20.50;50.80;;;;;;4890824;29;20037;-82
2023/10/05 15:46:50;;;;;;;0.10;0.10;;;20.50;50.60;;;;;;4882922;29;20457;-82
2023/10/05 15:49:16;;;;;;;0.10;0.08;;;20.50;52.10;;;;;;4882634;29;20575;-82
2023/10/05 15:51:41;;;;;;;0.00;0.00;;;20.50;52.50;;;;;;4882809;29;20500;-82
2023/10/05 15:54:08;;;;;;;0.00;0.00;;;20.40;52.70;;;;;;4866208;29;20029;-82
2023/10/05 15:56:33;;;;;;;0.00;0.00;;;20.40;52.20;;;;;;4882749;29;20049;-82
2023/10/05 15:58:59;;;;;;;0.00;0.00;;;20.30;52.50;;;;;;4866141;29;20041;-82
2023/10/05 16:01:26;;;;;;;0.10;0.10;;;20.30;52.20;;;;;;4900579;29;20028;-82
2023/10/05 16:03:52;;;;;;;0.00;0.00;;;20.30;52.60;;;;;;4893164;29;20027;-82
2023/10/05 16:06:22;;;;;;;0.00;0.00;;;20.20;53.30;;;;;;4884894;29;20100;-82
2023/10/05 16:08:48;;;;;;;0.00;0.00;;;20.10;54.30;;;;;;4882017;29;20037;-82
2023/10/05 16:11:13;;;;;;;0.00;0.00;;;20.00;53.90;;;;;;4882442;29;20441;-82
2023/10/05 16:13:39;;;;;;;0.00;0.00;;;19.90;54.20;;;;;;4882132;29;20028;-82
2023/10/05 16:16:07;;;;;;;0.00;0.00;;;19.90;54.70;;;;;;4893984;29;20504;-87
2023/10/05 16:18:32;;;;;;;0.00;0.00;;;19.90;54.90;;;;;;4876773;29;20043;-81
2023/10/05 16:21:02;;;;;;;0.00;0.00;;;19.90;54.70;;;;;;4900627;29;20411;-87
2023/10/05 16:23:28;;;;;;;0.00;0.00;;;19.80;55.20;;;;;;4882395;29;20045;-90
2023/10/05 16:25:53;;;;;;;0.00;0.00;;;19.80;55.80;;;;;;4884325;29;20047;-84
2023/10/05 16:28:19;;;;;;;0.00;0.00;;;19.70;55.80;;;;;;4884430;29;20092;-85
2023/10/05 16:30:46;;;;;;;0.00;0.00;;;19.70;56.10;;;;;;4900780;29;20127;-85
2023/10/05 16:33:14;;;;;;;0.00;0.00;;;19.60;55.20;;;;;;4878693;29;20044;-84
2023/10/05 16:35:40;;;;;;;0.00;0.00;;;19.60;54.00;;;;;;4893746;29;20500;-83
2023/10/05 16:38:05;;;;;;;0.00;0.00;;;19.50;54.30;;;;;;4877900;29;20039;-88
2023/10/05 16:40:33;;;;;;;0.00;0.00;;;19.40;53.70;;;;;;4895902;29;20035;-82
2023/10/05 16:43:00;;;;;;;0.00;0.00;;;19.40;54.30;;;;;;4895797;29;20036;-83
2023/10/05 16:45:26;;;;;;;0.00;0.00;;;19.30;56.30;;;;;;4882383;29;20091;-82
2023/10/05 16:47:54;;;;;;;0.00;0.00;;;19.30;56.50;;;;;;4899304;29;20066;-83
2023/10/05 16:50:21;;;;;;;0.00;0.00;;;19.20;57.10;;;;;;4899251;29;20590;-83
2023/10/05 16:52:48;;;;;;;0.10;0.10;;;19.00;57.30;;;;;;4882369;29;20036;-83
2023/10/05 16:55:16;;;;;;;0.00;0.00;;;19.00;57.50;;;;;;4877499;29;20116;-83
2023/10/05 16:57:45;;;;;;;0.00;0.00;;;18.90;57.50;;;;;;4882072;29;20036;-84
2023/10/05 17:00:17;;;;;;;0.00;0.00;;;18.80;58.10;;;;;;4878566;29;20025;-87
2023/10/05 17:02:46;;;;;;;0.00;0.00;;;18.70;57.90;;;;;;4881848;29;20862;-77
2023/10/05 17:05:13;;;;;;;0.00;0.00;;;18.60;58.40;;;;;;4897964;29;20408;-83
2023/10/05 17:07:45;;;;;;;0.00;0.00;;;18.50;58.20;;;;;;4880558;29;20506;-80
2023/10/05 17:10:11;;;;;;;0.00;0.00;;;18.50;59.00;;;;;;4880527;29;20032;-79
2023/10/05 17:12:41;;;;;;;0.00;0.00;;;18.40;59.10;;;;;;4894672;29;20523;-79
2023/10/05 17:15:09;;;;;;;0.00;0.00;;;18.30;59.80;;;;;;4893953;29;20036;-80
2023/10/05 17:17:35;;;;;;;0.00;0.00;;;18.30;60.30;;;;;;4876822;29;20044;-78
2023/10/05 17:20:03;;;;;;;0.00;0.00;;;18.20;61.00;;;;;;4879177;29;20093;-82
2023/10/05 17:22:29;;;;;;;0.00;0.00;;;18.10;61.50;;;;;;4885568;29;20116;-80
2023/10/05 17:24:56;;;;;;;0.00;0.00;;;18.10;61.90;;;;;;4896180;29;20028;-80
2023/10/05 17:27:25;;;;;;;0.00;0.00;;;18.00;62.50;;;;;;4903955;29;20031;-82
2023/10/05 17:29:52;;;;;;;0.00;0.00;;;18.00;62.90;;;;;;4894650;29;20025;-84
2023/10/05 17:32:18;;;;;;;0.00;0.00;;;17.90;63.50;;;;;;4884893;29;20497;-79
2023/10/05 17:34:48;;;;;;;0.00;0.00;;;17.80;63.80;;;;;;4898736;29;20056;-82
2023/10/05 17:37:15;;;;;;;0.10;0.08;;;17.80;64.10;;;;;;4902199;29;20080;-82
2023/10/05 17:39:41;;;;;;;0.10;0.00;;;17.70;63.50;;;;;;4899510;29;20037;-79
2023/10/05 17:42:09;;;;;;;0.00;0.00;;;17.70;63.90;;;;;;4881742;29;20063;-79
2023/10/05 17:44:36;;;;;;;0.00;0.00;;;17.60;63.60;;;;;;4903748;29;20029;-82
2023/10/05 17:47:02;;;;;;;0.00;0.00;;;17.60;64.00;;;;;;4884386;29;20044;-82